Time;durP1;ratioP1;P1;durP2;ratioP2;P2;SDS_P1;SDS_P2;PMS_P1;PMS_P2;Temp;Humidity;BMP_temperature;BMP_pressure;BME280_temperature;BME280_humidity;BME280_pressure;Samples;Min_cycle;Max_cycle;Signal;HPM_P1;HPM_P2
2022/08/23 00:01:33;;;;;;;15.90;3.08;;;;;;;22.81;54.14;99963.53;1613814;88;21041;-75
2022/08/23 00:04:05;;;;;;;27.40;3.05;;;;;;;22.83;54.27;99958.23;1613814;88;21316;-75
2022/08/23 00:06:32;;;;;;;15.25;3.17;;;;;;;22.88;54.20;99960.86;1614073;88;22716;-75
2022/08/23 00:08:58;;;;;;;15.70;3.72;;;;;;;22.92;54.05;99966.95;1613732;88;20962;-76
2022/08/23 00:11:39;;;;;;;18.23;3.10;;;;;;;22.95;54.13;99965.16;1613967;88;21469;-75
2022/08/23 00:14:13;;;;;;;17.90;3.40;;;;;;;22.98;54.40;99961.23;1613680;88;21092;-75
2022/08/23 00:16:42;;;;;;;14.18;3.37;;;;;;;23.01;54.67;99962.98;1613811;88;21057;-75
2022/08/23 00:19:11;;;;;;;13.38;3.45;;;;;;;23.04;54.78;99964.41;1613711;87;21896;-75
2022/08/23 00:21:39;;;;;;;16.57;3.60;;;;;;;23.04;54.79;99963.89;1613955;88;21038;-76
2022/08/23 00:24:06;;;;;;;20.40;4.03;;;;;;;23.07;54.83;99970.22;1613979;88;21100;-75
2022/08/23 00:27:06;;;;;;;18.23;3.15;;;;;;;23.10;54.75;99971.66;1613949;88;21042;-75
2022/08/23 00:29:47;;;;;;;17.77;3.47;;;;;;;23.13;54.74;99967.17;1613766;88;21030;-75
2022/08/23 00:32:17;;;;;;;21.02;3.85;;;;;;;23.15;54.58;99971.83;1613883;88;21852;-75
2022/08/23 00:34:44;;;;;;;15.68;3.45;;;;;;;23.17;54.10;99967.59;1613676;88;21042;-75
2022/08/23 00:37:11;;;;;;;15.75;3.80;;;;;;;23.18;53.73;99974.63;1613734;88;20969;-75
2022/08/23 00:39:39;;;;;;;15.95;3.52;;;;;;;23.21;53.31;99972.85;1613722;88;21026;-76
2022/08/23 00:47:43;;;;;;;19.17;3.87;;;;;;;23.29;52.08;99982.87;1613706;88;21819;-75
2022/08/23 00:50:24;;;;;;;14.40;3.45;;;;;;;23.36;51.92;99986.37;1613709;87;21517;-76
2022/08/23 00:53:11;;;;;;;15.35;3.30;;;;;;;23.40;51.65;99986.75;1613735;88;21061;-76
2022/08/23 00:55:40;;;;;;;15.03;3.62;;;;;;;23.43;51.18;99991.19;1613165;88;21065;-76
2022/08/23 00:58:07;;;;;;;26.82;4.05;;;;;;;23.50;50.71;99986.30;1613950;88;21836;-76
2022/08/23 01:00:34;;;;;;;15.72;3.87;;;;;;;23.56;50.66;99991.66;1613682;88;21053;-76
2022/08/23 01:03:01;;;;;;;21.68;4.42;;;;;;;23.60;50.27;99996.94;1613961;88;21070;-76
2022/08/23 01:05:34;;;;;;;19.48;3.58;;;;;;;23.64;50.03;99989.23;1613812;88;21779;-75
2022/08/23 01:08:01;;;;;;;21.10;3.63;;;;;;;23.68;49.45;99995.88;1614026;88;21034;-75
2022/08/23 01:10:36;;;;;;;22.70;4.03;;;;;;;23.71;48.92;99994.08;1613736;88;21918;-75
2022/08/23 01:13:08;;;;;;;22.22;3.85;;;;;;;23.77;48.49;99995.09;1613481;88;21153;-75
2022/08/23 01:15:45;;;;;;;19.98;3.75;;;;;;;23.82;48.40;99998.78;1613879;88;21053;-75
2022/08/23 01:18:14;;;;;;;21.55;3.90;;;;;;;23.84;48.40;99995.36;1589994;88;21069;-76
2022/08/23 01:20:56;;;;;;;15.20;3.50;;;;;;;23.85;48.35;99995.66;1613777;88;21552;-75
2022/08/23 01:23:28;;;;;;;16.50;4.00;;;;;;;23.85;48.23;99992.97;1613678;88;21840;-75
2022/08/23 01:25:56;;;;;;;22.15;3.60;;;;;;;23.86;48.27;99993.80;1611893;88;21089;-76
2022/08/23 01:28:24;;;;;;;22.70;4.08;;;;;;;23.87;48.32;99997.62;1613745;88;21050;-76
2022/08/23 01:30:51;;;;;;;20.10;3.85;;;;;;;23.84;48.52;99999.41;1613761;88;21049;-76
2022/08/23 01:33:18;;;;;;;19.82;3.60;;;;;;;23.85;48.70;100001.06;1613753;88;21591;-75
2022/08/23 01:35:52;;;;;;;17.50;3.55;;;;;;;23.85;48.36;99995.66;1613907;88;21823;-76
2022/08/23 01:38:19;;;;;;;16.37;3.92;;;;;;;23.89;48.08;100000.92;1613681;88;21034;-75
2022/08/23 01:40:45;;;;;;;28.75;4.08;;;;;;;23.94;47.96;100002.45;1613943;88;21503;-75
2022/08/23 01:43:12;;;;;;;29.42;4.10;;;;;;;23.97;47.69;99995.78;1613752;88;21046;-75
2022/08/23 01:45:41;;;;;;;17.62;3.55;;;;;;;23.99;47.61;99999.91;1613693;88;21066;-75
2022/08/23 01:48:08;;;;;;;30.40;4.53;;;;;;;24.01;47.59;99998.86;1613771;88;22510;-75
2022/08/23 01:50:35;;;;;;;26.45;4.42;;;;;;;24.03;47.66;99995.42;1613640;87;21057;-75
2022/08/23 01:53:03;;;;;;;27.85;4.40;;;;;;;24.02;47.37;100002.69;1613714;88;21468;-75
2022/08/23 01:55:30;;;;;;;25.88;4.47;;;;;;;24.03;47.38;100000.32;1613674;88;21054;-76
2022/08/23 01:57:58;;;;;;;16.42;4.10;;;;;;;24.05;47.24;100002.80;1614068;88;21061;-76
2022/08/23 02:00:32;;;;;;;17.40;3.98;;;;;;;24.07;47.30;100002.05;1590082;88;22590;-76
2022/08/23 02:02:59;;;;;;;30.88;4.00;;;;;;;24.07;47.20;100004.75;1613668;88;21576;-76
2022/08/23 02:05:26;;;;;;;23.98;4.75;;;;;;;24.04;47.15;99993.05;1613643;88;21069;-76
2022/08/23 02:07:54;;;;;;;30.95;4.33;;;;;;;24.05;47.13;100006.84;1613672;88;21308;-76
2022/08/23 02:10:21;;;;;;;32.10;4.75;;;;;;;24.05;47.18;100009.55;1613709;88;21061;-76
2022/08/23 02:12:49;;;;;;;30.05;4.60;;;;;;;24.05;47.32;100004.14;1589525;88;22209;-75
2022/08/23 02:15:17;;;;;;;32.48;4.75;;;;;;;24.04;47.25;100014.64;1589845;88;21139;-75
2022/08/23 02:17:45;;;;;;;39.98;5.65;;;;;;;24.03;47.45;100015.16;1613709;87;21069;-77
2022/08/23 02:20:13;;;;;;;23.92;4.40;;;;;;;24.02;47.52;100027.49;1613622;88;21065;-75
2022/08/23 02:22:39;;;;;;;24.45;4.87;;;;;;;24.01;47.64;100021.27;1613782;88;21600;-76
2022/08/23 02:25:07;;;;;;;32.15;4.60;;;;;;;24.02;47.72;100023.45;1613893;88;21553;-76
2022/08/23 02:27:35;;;;;;;27.45;4.30;;;;;;;24.01;47.56;100021.27;1613759;88;21068;-76
2022/08/23 02:30:02;;;;;;;28.42;4.60;;;;;;;24.01;47.50;100029.89;1613957;88;21054;-76
2022/08/23 02:32:28;;;;;;;35.80;5.28;;;;;;;24.01;47.46;100032.59;1613704;88;21100;-75
2022/08/23 02:34:56;;;;;;;39.48;4.85;;;;;;;24.00;47.41;100035.81;1613780;88;21092;-75
2022/08/23 02:37:23;;;;;;;40.95;5.03;;;;;;;23.99;47.10;100036.86;1613916;88;21829;-76
2022/08/23 02:39:50;;;;;;;33.28;5.33;;;;;;;23.98;46.95;100041.95;1613606;88;21601;-75
2022/08/23 02:42:17;;;;;;;37.08;5.40;;;;;;;23.97;46.98;100042.47;1613624;88;21413;-75
2022/08/23 02:44:43;;;;;;;33.73;5.42;;;;;;;23.95;46.82;100033.78;1613791;88;21049;-75
2022/08/23 02:47:11;;;;;;;42.20;4.97;;;;;;;23.95;46.96;100041.88;1613717;88;21554;-75
2022/08/23 02:49:40;;;;;;;42.13;5.80;;;;;;;23.94;46.91;100035.34;1589173;88;21835;-75
2022/08/23 02:52:07;;;;;;;42.00;5.22;;;;;;;23.93;46.96;100040.41;1613618;87;20970;-75
2022/08/23 02:54:34;;;;;;;40.85;5.67;;;;;;;23.92;46.99;100041.45;1613680;88;21061;-75
2022/08/23 02:57:01;;;;;;;45.30;5.95;;;;;;;23.92;47.08;100044.98;1613715;88;21311;-75
2022/08/23 02:59:28;;;;;;;43.90;5.28;;;;;;;23.91;47.24;100047.90;1613719;88;21041;-76
2022/08/23 03:01:54;;;;;;;40.17;5.40;;;;;;;23.91;47.31;100059.52;1613888;88;22930;-76
2022/08/23 03:04:23;;;;;;;42.53;5.60;;;;;;;23.89;47.24;100061.61;1613254;88;21182;-76
2022/08/23 03:06:50;;;;;;;36.85;5.58;;;;;;;23.87;47.14;100061.00;1613659;88;21049;-75
2022/08/23 03:09:17;;;;;;;32.23;5.65;;;;;;;23.86;47.11;100063.40;1584608;88;21144;-76
2022/08/23 03:11:45;;;;;;;44.13;5.47;;;;;;;23.85;47.15;100072.53;1584770;88;21072;-75
2022/08/23 03:14:12;;;;;;;41.20;5.90;;;;;;;23.86;47.11;100069.31;1613799;88;22979;-75
2022/08/23 03:16:39;;;;;;;39.92;6.05;;;;;;;23.85;47.12;100067.14;1613778;88;20939;-76
2022/08/23 03:19:06;;;;;;;49.88;5.87;;;;;;;23.86;47.18;100070.14;1613906;87;21731;-76
2022/08/23 03:21:34;;;;;;;37.55;5.65;;;;;;;23.87;47.42;100072.31;1613825;88;21314;-76
2022/08/23 03:24:01;;;;;;;54.03;6.05;;;;;;;23.89;47.48;100078.31;1613931;88;21779;-76
2022/08/23 03:26:28;;;;;;;45.90;6.75;;;;;;;23.89;47.28;100080.48;1614070;88;21938;-76
2022/08/23 03:28:55;;;;;;;44.88;6.50;;;;;;;23.92;47.30;100085.44;1613718;88;21088;-75
2022/08/23 03:31:22;;;;;;;46.95;6.40;;;;;;;23.92;47.33;100088.14;1584727;88;21069;-75
2022/08/23 03:34:06;;;;;;;;;;;;;;;23.94;47.49;100087.42;1616013;88;21525;-76
2022/08/23 03:36:33;;;;;;;46.37;6.42;;;;;;;23.94;47.81;100086.08;1613828;88;20554;-74
2022/08/23 03:38:59;;;;;;;50.75;6.70;;;;;;;23.92;47.99;100085.97;1614018;88;21804;-75
2022/08/23 03:41:28;;;;;;;37.90;5.62;;;;;;;23.92;48.17;100089.48;1613729;88;21090;-75
2022/08/23 03:43:55;;;;;;;48.75;6.80;;;;;;;23.91;48.15;100091.88;1614066;88;21549;-76
2022/08/23 03:46:23;;;;;;;42.10;6.90;;;;;;;23.88;47.98;100099.06;1613800;88;21054;-75
2022/08/23 03:48:58;;;;;;;53.30;6.40;;;;;;;23.86;47.76;100087.67;1613840;88;21057;-75
2022/08/23 03:51:27;;;;;;;53.15;6.67;;;;;;;23.86;47.79;100095.77;1613732;87;22712;-75
2022/08/23 03:53:54;;;;;;;45.25;7.05;;;;;;;23.87;47.93;100101.46;1613764;88;21049;-75
2022/08/23 03:56:36;;;;;;;51.77;7.60;;;;;;;23.87;48.21;100105.51;1613786;88;21097;-75
2022/08/23 03:59:07;;;;;;;64.40;7.45;;;;;;;23.88;48.44;100107.69;1614085;88;21062;-75
2022/08/23 04:01:35;;;;;;;46.68;7.00;;;;;;;23.89;48.37;100114.73;1613860;88;21732;-75
2022/08/23 04:04:02;;;;;;;46.83;6.67;;;;;;;23.89;48.17;100115.55;1584860;88;21834;-75
2022/08/23 04:06:30;;;;;;;47.30;7.90;;;;;;;23.89;48.06;100119.59;1587974;88;21045;-75
2022/08/23 04:08:59;;;;;;;45.10;6.87;;;;;;;23.89;47.98;100122.82;1613811;88;21041;-76
2022/08/23 04:11:26;;;;;;;54.75;7.25;;;;;;;23.90;47.58;100129.87;1613761;88;21106;-75
2022/08/23 04:13:54;;;;;;;46.80;7.20;;;;;;;23.90;47.24;100131.22;1613659;88;21757;-75
2022/08/23 04:16:21;;;;;;;44.33;7.10;;;;;;;23.91;47.40;100128.83;1613825;88;22903;-76
2022/08/23 04:18:48;;;;;;;50.25;6.58;;;;;;;23.92;47.57;100134.00;1613736;87;21513;-75
2022/08/23 04:21:18;;;;;;;39.40;6.67;;;;;;;23.93;47.50;100138.87;1613976;88;21070;-76
2022/08/23 04:23:45;;;;;;;64.95;6.70;;;;;;;23.94;47.45;100144.08;1613908;88;21103;-76
2022/08/23 04:26:12;;;;;;;45.00;6.85;;;;;;;23.94;47.33;100141.91;1613960;88;21318;-76
2022/08/23 04:28:40;;;;;;;53.08;6.78;;;;;;;23.93;46.99;100149.17;1589013;88;21946;-75
2022/08/23 04:31:06;;;;;;;44.18;6.28;;;;;;;23.94;46.98;100145.95;1613890;88;21321;-75
2022/08/23 04:33:34;;;;;;;43.90;6.75;;;;;;;23.93;47.06;100152.36;1613795;88;21053;-75
2022/08/23 04:36:02;;;;;;;51.73;7.08;;;;;;;23.94;47.22;100155.39;1613760;88;21322;-75
2022/08/23 04:38:29;;;;;;;55.60;7.33;;;;;;;23.96;47.49;100154.12;1613804;88;21113;-76
2022/08/23 04:43:44;;;;;;;47.58;7.33;;;;;;;23.99;47.35;100151.52;1611658;88;21080;-75
2022/08/23 04:46:15;;;;;;;46.85;6.90;;;;;;;24.01;47.40;100159.39;1582555;88;21124;-75
2022/08/23 04:48:43;;;;;;;47.05;6.60;;;;;;;24.01;47.40;100149.42;1611744;88;21137;-75
2022/08/23 04:51:10;;;;;;;50.88;7.30;;;;;;;24.03;47.33;100161.34;1616854;87;21352;-75
2022/08/23 04:53:38;;;;;;;47.23;6.70;;;;;;;24.05;47.32;100161.45;1632323;87;21864;-74
2022/08/23 04:56:07;;;;;;;48.25;6.15;;;;;;;24.08;47.37;100170.46;1617006;87;21096;-76
2022/08/23 04:58:35;;;;;;;37.73;6.17;;;;;;;24.11;47.45;100168.67;1632287;87;21088;-73
2022/08/23 05:01:05;;;;;;;34.35;5.85;;;;;;;24.16;47.53;100166.70;1632279;87;21117;-76
2022/08/23 05:03:31;;;;;;;102.02;63.95;;;;;;;24.18;46.98;100170.83;1635351;87;21318;-78
2022/08/23 05:05:58;;;;;;;65.70;27.65;;;;;;;24.21;46.85;100174.95;1632852;87;22770;-78
2022/08/23 05:08:27;;;;;;;42.78;8.90;;;;;;;24.22;46.76;100175.26;1632523;87;21080;-78
2022/08/23 05:10:53;;;;;;;42.27;8.13;;;;;;;24.26;46.59;100173.80;1633138;87;21131;-78
2022/08/23 05:13:20;;;;;;;36.42;6.10;;;;;;;24.28;46.51;100175.75;1632992;87;21093;-78
2022/08/23 05:15:51;;;;;;;40.90;8.65;;;;;;;24.31;46.50;100169.09;1632912;87;21350;-77
2022/08/23 05:18:19;;;;;;;47.88;7.33;;;;;;;24.33;46.91;100175.98;1632640;86;22571;-77
2022/08/23 05:20:45;;;;;;;48.02;6.87;;;;;;;24.34;46.66;100176.81;1632290;87;21894;-76
2022/08/23 05:23:11;;;;;;;44.93;7.03;;;;;;;24.34;46.26;100183.03;1632237;87;21111;-75
2022/08/23 05:25:48;;;;;;;47.67;6.60;;;;;;;24.34;46.36;100193.83;1632332;87;21080;-77
2022/08/23 05:28:30;;;;;;;44.95;7.30;;;;;;;24.36;46.26;100193.61;1632149;87;21308;-77
2022/08/23 05:31:05;;;;;;;39.55;6.55;;;;;;;24.39;46.21;100198.56;1631695;87;22486;-74
2022/08/23 05:33:34;;;;;;;54.85;6.95;;;;;;;24.40;45.88;100200.22;1632038;87;21087;-76
2022/08/23 05:36:03;;;;;;;32.88;6.33;;;;;;;24.40;45.94;100203.74;1632132;87;21575;-76
2022/08/23 05:38:29;;;;;;;38.70;6.97;;;;;;;24.42;46.42;100208.95;1631978;87;21491;-74
2022/08/23 05:40:57;;;;;;;40.88;6.45;;;;;;;24.42;46.23;100201.68;1632263;87;21088;-76
2022/08/23 05:43:24;;;;;;;45.95;6.20;;;;;;;24.43;46.38;100212.78;1631921;87;21913;-73
2022/08/23 05:46:12;;;;;;;34.33;5.92;;;;;;;24.45;46.61;100218.79;1612988;87;21357;-75
2022/08/23 05:48:41;;;;;;;45.95;5.42;;;;;;;24.46;46.52;100214.22;1632106;87;21099;-77
2022/08/23 05:51:15;;;;;;;42.67;6.55;;;;;;;24.43;46.34;100219.53;1630833;87;21061;-78
2022/08/23 05:53:42;;;;;;;39.27;6.15;;;;;;;24.41;46.67;100228.34;1604105;89;21102;-77
2022/08/23 05:56:20;;;;;;;45.65;6.83;;;;;;;24.42;46.54;100228.67;1603121;89;22470;-78
2022/08/23 05:58:47;;;;;;;44.48;7.00;;;;;;;24.44;46.38;100226.59;1603683;89;21889;-77
2022/08/23 06:01:15;;;;;;;36.30;6.97;;;;;;;24.45;46.31;100230.94;1604590;88;21323;-77
2022/08/23 06:03:42;;;;;;;44.03;7.50;;;;;;;24.47;46.73;100232.06;1581948;89;21376;-77
2022/08/23 06:06:10;;;;;;;42.45;6.83;;;;;;;24.53;46.60;100238.79;1604320;89;21062;-78
2022/08/23 06:08:37;;;;;;;40.33;6.03;;;;;;;24.63;46.58;100242.89;1604392;89;21944;-78
2022/08/23 06:11:09;;;;;;;54.00;7.50;;;;;;;24.72;46.74;100242.42;1604297;89;21042;-78
2022/08/23 06:13:44;;;;;;;37.95;5.78;;;;;;;24.80;46.27;100247.57;1604221;89;21105;-78
2022/08/23 06:16:12;;;;;;;38.73;5.95;;;;;;;24.85;45.93;100248.25;1582010;89;21596;-78
2022/08/23 06:18:39;;;;;;;30.88;5.45;;;;;;;24.89;45.53;100241.35;1604356;87;21097;-77
2022/08/23 06:21:10;;;;;;;35.35;5.78;;;;;;;24.92;45.80;100236.88;1601850;89;22613;-78
2022/08/23 06:23:46;;;;;;;38.25;6.30;;;;;;;24.97;45.63;100241.09;1583958;89;21057;-79
2022/08/23 06:26:20;;;;;;;42.33;6.15;;;;;;;25.03;45.23;100244.31;1604428;89;21101;-78
2022/08/23 06:28:49;;;;;;;41.45;7.40;;;;;;;25.06;45.30;100237.11;1604544;89;21796;-77
2022/08/23 06:31:43;;;;;;;34.55;6.17;;;;;;;25.09;45.36;100243.45;1604458;88;21070;-76
2022/08/23 06:33:46;;;;;;;33.20;5.85;;;;;;;25.11;45.50;100238.64;1581587;89;22882;-77
2022/08/23 06:36:16;;;;;;;40.35;6.50;;;;;;;25.15;45.87;100243.07;1602494;89;21061;-76
2022/08/23 06:38:56;;;;;;;34.27;6.15;;;;;;;25.22;45.83;100248.43;1603207;89;21094;-78
2022/08/23 06:41:41;;;;;;;41.02;5.85;;;;;;;25.29;45.41;100252.74;1604348;89;21102;-79
2022/08/23 06:44:27;;;;;;;38.85;6.08;;;;;;;25.32;44.98;100254.99;1604397;89;21835;-78
2022/08/23 06:46:58;;;;;;;40.88;6.33;;;;;;;25.34;44.80;100258.30;1601872;89;22985;-78
2022/08/23 06:49:26;;;;;;;34.63;5.67;;;;;;;25.38;44.55;100267.64;1604192;89;21081;-78
2022/08/23 06:51:55;;;;;;;35.10;5.72;;;;;;;25.41;44.11;100271.77;1611502;85;21326;-79
2022/08/23 06:54:34;;;;;;;40.40;11.25;;;;;;;25.40;43.98;100271.47;1616757;87;21718;-77
2022/08/23 06:57:08;;;;;;;37.50;6.03;;;;;;;25.40;44.25;100260.13;1628774;87;21040;-74
2022/08/23 06:59:48;;;;;;;36.48;6.33;;;;;;;25.45;44.10;100270.27;1633881;87;22372;-75
2022/08/23 07:02:26;;;;;;;35.88;5.72;;;;;;;25.47;44.25;100270.03;1632355;87;21064;-76
2022/08/23 07:04:56;;;;;;;31.10;5.40;;;;;;;25.49;43.57;100272.84;1634255;87;21892;-75
2022/08/23 07:07:39;;;;;;;28.87;5.08;;;;;;;25.54;43.68;100264.88;1631982;87;21040;-75
2022/08/23 07:10:07;;;;;;;34.25;5.45;;;;;;;25.57;42.65;100272.53;1634670;87;21041;-75
2022/08/23 07:12:40;;;;;;;28.75;5.17;;;;;;;25.58;42.71;100270.69;1634429;87;21969;-75
2022/08/23 07:15:10;;;;;;;26.50;4.85;;;;;;;25.57;42.16;100282.53;1615784;87;21899;-78
2022/08/23 07:17:37;;;;;;;24.90;4.45;;;;;;;25.53;42.79;100281.33;1634387;86;21747;-73
2022/08/23 07:20:05;;;;;;;26.52;5.58;;;;;;;25.55;42.84;100281.41;1634350;86;21057;-74
2022/08/23 07:22:34;;;;;;;26.27;5.70;;;;;;;25.55;42.37;100290.05;1634314;87;21041;-79
2022/08/23 07:25:02;;;;;;;34.58;6.33;;;;;;;25.55;42.26;100297.63;1634383;86;21868;-80
2022/08/23 07:27:29;;;;;;;27.70;5.87;;;;;;;25.59;41.47;100285.86;1634221;87;21890;-80
2022/08/23 07:30:04;;;;;;;36.98;5.28;;;;;;;25.64;41.20;100301.71;1634531;87;21040;-76
2022/08/23 07:32:31;;;;;;;23.02;5.50;;;;;;;25.71;40.83;100296.28;1615668;87;21078;-76
2022/08/23 07:35:00;;;;;;;34.53;5.67;;;;;;;25.75;41.29;100314.23;1633856;87;21036;-74
2022/08/23 07:37:29;;;;;;;26.42;5.58;;;;;;;25.80;40.34;100305.77;1634268;87;22063;-75
2022/08/23 07:39:57;;;;;;;28.67;5.15;;;;;;;25.85;40.94;100305.91;1634236;87;21101;-75
2022/08/23 07:42:24;;;;;;;31.27;5.87;;;;;;;25.92;41.24;100301.80;1634540;87;21044;-76
2022/08/23 07:44:53;;;;;;;26.30;5.40;;;;;;;25.97;40.91;100311.44;1634052;87;21041;-76
2022/08/23 07:47:21;;;;;;;33.58;5.85;;;;;;;25.99;41.00;100305.80;1634294;87;21108;-73
2022/08/23 07:49:48;;;;;;;24.82;4.60;;;;;;;26.06;40.24;100308.73;1634336;87;22345;-75
2022/08/23 07:52:14;;;;;;;20.08;4.97;;;;;;;26.11;39.47;100309.41;1629379;87;21061;-79
2022/08/23 07:54:43;;;;;;;22.35;4.70;;;;;;;26.13;39.58;100312.18;1613617;88;21061;-76
2022/08/23 07:57:11;;;;;;;29.65;5.15;;;;;;;26.17;39.50;100305.28;1606438;88;21052;-75
2022/08/23 07:59:51;;;;;;;22.60;4.90;;;;;;;26.25;39.44;100306.34;1612948;88;21054;-75
2022/08/23 08:02:23;;;;;;;20.02;4.30;;;;;;;26.36;39.58;100303.39;1599838;88;22253;-75
2022/08/23 08:04:50;;;;;;;21.65;4.72;;;;;;;26.48;39.35;100325.98;1613609;88;21040;-80
2022/08/23 08:07:16;;;;;;;25.72;5.15;;;;;;;26.55;37.67;100316.42;1613634;87;21100;-80
2022/08/23 08:09:44;;;;;;;27.05;4.78;;;;;;;26.58;37.98;100324.61;1615766;87;21553;-82
2022/08/23 08:12:11;;;;;;;31.50;5.20;;;;;;;26.62;38.46;100321.20;1614610;87;21057;-76
2022/08/23 08:14:41;;;;;;;17.90;4.55;;;;;;;26.70;37.70;100330.38;1614032;88;22458;-78
2022/08/23 08:17:08;;;;;;;20.57;4.45;;;;;;;26.72;36.99;100321.48;1613709;87;21092;-79
2022/08/23 08:19:37;;;;;;;24.60;4.75;;;;;;;26.76;37.28;100321.87;1578732;88;21045;-79
2022/08/23 08:22:14;;;;;;;20.30;4.78;;;;;;;26.82;37.05;100317.70;1613966;87;21145;-83
2022/08/23 08:24:58;;;;;;;17.60;4.25;;;;;;;26.90;36.77;100321.16;1614034;88;21080;-80
2022/08/23 08:27:25;;;;;;;17.70;3.75;;;;;;;26.94;36.66;100315.05;1613696;88;21976;-79
2022/08/23 08:29:53;;;;;;;19.50;4.55;;;;;;;26.98;36.04;100311.34;1613925;88;21117;-77
2022/08/23 08:32:20;;;;;;;23.07;6.17;;;;;;;27.00;36.75;100316.83;1613725;88;21064;-78
2022/08/23 08:34:47;;;;;;;27.70;5.70;;;;;;;27.06;37.29;100317.30;1613947;88;21077;-77
2022/08/23 08:37:14;;;;;;;19.90;4.72;;;;;;;27.14;37.08;100311.26;1613702;87;21800;-76
2022/08/23 08:39:44;;;;;;;27.95;4.78;;;;;;;27.24;36.71;100308.80;1613670;88;21974;-75
2022/08/23 08:42:32;;;;;;;20.17;4.08;;;;;;;27.31;36.26;100311.72;1613517;88;21060;-78
2022/08/23 08:45:09;;;;;;;26.52;4.53;;;;;;;27.37;36.78;100313.48;1613603;88;21567;-77
2022/08/23 08:48:02;;;;;;;20.00;4.08;;;;;;;27.46;36.16;100314.49;1613853;87;21247;-78
2022/08/23 08:50:41;;;;;;;21.68;4.17;;;;;;;27.53;35.56;100317.40;1613624;88;21052;-78
2022/08/23 08:53:28;;;;;;;23.50;3.30;;;;;;;27.62;35.80;100308.38;1623963;87;21953;-77
2022/08/23 08:56:01;;;;;;;18.92;3.62;;;;;;;27.72;36.08;100309.19;1616054;87;21045;-77
2022/08/23 08:58:39;;;;;;;18.15;3.40;;;;;;;27.86;35.02;100308.70;1611944;87;21052;-75
2022/08/23 09:01:06;;;;;;;17.17;3.67;;;;;;;27.93;35.47;100306.69;1634118;87;21119;-75
2022/08/23 09:03:34;;;;;;;12.82;3.00;;;;;;;28.06;35.11;100306.14;1634361;87;21060;-75
2022/08/23 09:06:09;;;;;;;17.17;3.05;;;;;;;28.17;34.47;100295.78;1634394;87;22002;-76
2022/08/23 09:09:00;;;;;;;19.82;3.42;;;;;;;28.27;34.61;100290.56;1634352;87;21045;-76
2022/08/23 09:12:05;;;;;;;19.73;3.35;;;;;;;28.39;34.30;100311.79;1595576;87;21322;-78
2022/08/23 09:14:44;;;;;;;17.25;3.27;;;;;;;28.52;34.05;100307.96;1615604;87;21476;-72
2022/08/23 09:17:31;;;;;;;20.70;3.98;;;;;;;28.59;34.56;100304.58;1634505;87;21049;-74
2022/08/23 09:19:59;;;;;;;15.28;3.25;;;;;;;28.69;33.88;100308.03;1634457;87;21885;-74
2022/08/23 09:22:45;;;;;;;11.65;3.20;;;;;;;28.79;33.75;100308.22;1611761;87;21057;-75
2022/08/23 09:28:22;;;;;;;13.38;2.98;;;;;;;28.91;33.40;100314.98;1700999;77;21031;-74
2022/08/23 09:30:55;;;;;;;14.60;3.37;;;;;;;28.97;34.01;100314.02;1693429;83;20959;-72
2022/08/23 09:33:28;;;;;;;15.25;3.25;;;;;;;29.11;34.12;100309.91;1649052;85;22479;-70
2022/08/23 09:36:15;;;;;;;16.95;3.22;;;;;;;29.27;33.87;100313.73;1699336;81;21069;-70
2022/08/23 09:39:04;;;;;;;16.82;3.10;;;;;;;29.41;33.03;100319.66;1700021;81;21020;-70
2022/08/23 09:41:35;;;;;;;11.20;2.95;;;;;;;29.47;33.83;100320.88;1710608;81;21161;-71
2022/08/23 09:44:12;;;;;;;18.10;2.83;;;;;;;29.56;33.47;100313.97;1715914;81;21505;-70
2022/08/23 09:46:41;;;;;;;13.13;3.27;;;;;;;29.67;33.23;100317.67;1702238;82;21856;-69
2022/08/23 09:49:28;;;;;;;12.30;3.02;;;;;;;29.74;32.81;100328.41;1705270;81;20959;-70
2022/08/23 09:52:11;;;;;;;13.50;2.72;;;;;;;29.80;32.81;100326.03;1707935;81;20943;-73
2022/08/23 09:54:39;;;;;;;11.48;2.77;;;;;;;29.92;33.22;100322.15;1714589;81;21019;-70
2022/08/23 09:57:09;;;;;;;8.00;2.60;;;;;;;30.13;32.65;100319.73;1709671;81;21012;-73
2022/08/23 09:59:44;;;;;;;14.83;3.42;;;;;;;30.32;32.78;100321.08;1715586;82;21493;-72
2022/08/23 10:02:30;;;;;;;11.15;2.90;;;;;;;30.47;31.92;100307.63;1713253;82;21012;-70
2022/08/23 10:05:16;;;;;;;16.65;2.95;;;;;;;30.60;30.73;100311.87;1686513;82;21071;-73
2022/08/23 10:07:59;;;;;;;10.40;2.80;;;;;;;30.70;30.52;100313.92;1715374;82;21566;-71
2022/08/23 10:10:45;;;;;;;10.25;2.92;;;;;;;30.84;29.96;100312.97;1712700;82;21000;-72
2022/08/23 10:13:13;;;;;;;13.03;2.83;;;;;;;30.95;30.26;100318.81;1711699;82;21000;-72
2022/08/23 10:16:06;;;;;;;13.30;3.30;;;;;;;31.04;29.50;100318.09;1717461;81;22181;-70
2022/08/23 10:19:03;;;;;;;29.15;20.35;;;;;;;31.13;29.46;100319.80;1670012;83;21030;-72
2022/08/23 10:22:04;;;;;;;14.63;3.65;;;;;;;31.26;29.18;100320.77;1684270;83;21456;-71
2022/08/23 10:24:54;;;;;;;12.63;3.02;;;;;;;31.37;29.04;100330.44;1715359;81;21022;-73
2022/08/23 10:31:00;;;;;;;16.90;3.05;;;;;;;31.53;28.10;100330.82;1723425;82;21042;-72
2022/08/23 10:33:58;;;;;;;15.10;3.27;;;;;;;31.53;28.68;100326.18;1710543;82;21002;-72
2022/08/23 10:36:39;;;;;;;14.90;2.92;;;;;;;31.61;28.21;100335.80;1716310;81;21015;-74
2022/08/23 10:39:10;;;;;;;20.40;2.60;;;;;;;31.57;27.90;100327.86;1674709;84;21017;-72
2022/08/23 10:42:03;;;;;;;17.55;2.77;;;;;;;31.54;27.83;100322.91;1726685;82;22704;-73
2022/08/23 10:44:57;;;;;;;18.17;2.83;;;;;;;31.59;28.06;100325.69;1709383;82;21123;-74
2022/08/23 10:47:45;;;;;;;12.85;3.40;;;;;;;31.73;28.24;100324.14;1728589;82;21079;-77
2022/08/23 10:50:19;;;;;;;13.18;3.33;;;;;;;31.92;27.94;100331.94;1730578;82;21090;-74
2022/08/23 10:53:10;;;;;;;14.70;3.08;;;;;;;32.10;27.74;100329.59;1712118;83;20965;-74
2022/08/23 10:56:05;;;;;;;16.77;2.72;;;;;;;32.27;26.64;100337.61;1709082;82;21739;-73
2022/08/23 10:58:52;;;;;;;17.42;3.00;;;;;;;32.37;26.49;100326.75;1665498;86;21399;-73
2022/08/23 11:01:34;;;;;;;15.80;2.65;;;;;;;32.42;26.53;100339.06;1695795;83;21123;-73
2022/08/23 11:04:08;;;;;;;14.80;3.00;;;;;;;32.39;26.22;100336.88;1711784;83;21017;-72
2022/08/23 11:06:43;;;;;;;10.23;2.50;;;;;;;32.38;26.46;100337.14;1711671;82;20952;-73
2022/08/23 11:09:23;;;;;;;6.97;2.67;;;;;;;32.39;26.71;100342.34;1696458;82;21542;-74
2022/08/23 11:12:22;;;;;;;17.10;3.12;;;;;;;32.39;26.75;100337.41;1708452;84;20956;-72
2022/08/23 11:15:12;;;;;;;15.05;3.27;;;;;;;32.43;27.19;100334.45;1708712;83;21112;-73
2022/08/23 11:17:55;;;;;;;11.30;3.00;;;;;;;32.57;26.87;100333.39;1689827;83;21152;-73
2022/08/23 11:20:54;;;;;;;11.33;2.98;;;;;;;32.63;26.98;100337.25;1703704;83;21116;-73
2022/08/23 11:23:57;;;;;;;18.62;2.90;;;;;;;32.68;26.73;100334.52;1704957;83;22489;-73
2022/08/23 11:26:40;;;;;;;12.18;3.22;;;;;;;32.81;26.41;100323.59;1695691;83;20960;-72
2022/08/23 11:29:22;;;;;;;9.70;4.60;;;;;;;32.95;25.80;100317.11;1718814;82;21027;-73
2022/08/23 11:32:03;;;;;;;;;;;;;;;33.03;25.93;100326.16;1719922;81;20975;-72
2022/08/23 11:34:41;;;;;;;13.28;2.85;;;;;;;33.08;26.09;100328.06;1714719;82;20197;-73
2022/08/23 11:37:22;;;;;;;13.32;2.58;;;;;;;33.12;25.70;100325.89;1721773;81;21752;-73
2022/08/23 11:40:01;;;;;;;14.00;2.90;;;;;;;33.17;26.07;100330.54;1736295;81;21067;-76
2022/08/23 11:42:48;;;;;;;13.38;2.87;;;;;;;33.22;26.17;100331.92;1713999;81;21450;-78
2022/08/23 11:45:36;;;;;;;12.65;2.65;;;;;;;33.30;25.72;100312.22;1737470;81;21047;-74
2022/08/23 11:48:21;;;;;;;11.83;3.22;;;;;;;33.36;25.71;100335.78;1696987;83;21032;-77
2022/08/23 11:50:53;;;;;;;9.50;3.08;;;;;;;33.36;25.99;100333.05;1705205;82;22444;-74
2022/08/23 11:53:46;;;;;;;14.35;2.72;;;;;;;33.38;25.79;100340.98;1716027;82;21502;-74
2022/08/23 11:56:24;;;;;;;10.58;2.52;;;;;;;33.41;26.18;100334.43;1719903;82;21429;-72
2022/08/23 11:58:56;;;;;;;13.13;2.80;;;;;;;33.49;26.10;100329.78;1713927;83;21051;-74
2022/08/23 12:01:33;;;;;;;13.03;2.67;;;;;;;33.55;25.55;100331.39;1716080;81;21022;-72